Aérodrome :
LOGIN :

S'inscrire | Disclaimer

   EN    FR    IT 

 










Légende :    VFR   VFR Marginal   IFR   IFR Intensif   IFR Très Intensif
Visi : 
Plafond : 
>= 8 km
>= 3000ft
5 à 8 km
1000 à 3000 ft
1500m à 5 km
500 à 1000 ft
800 à 1500m
200 à 500 ft
< 800m
< 200 ft
Symboles :   Orages  Brouillard  Fortes neiges  Fortes précipitations  Vent > 20 kt
SIGMETs :   Divers  Orages  Givrage  Turbulence  Onde Orograph.  Cendres Volcan.







- Altitude de l'aérodrome : 978 ft
- Code IATA : LNZ


LOWL - Linz

DERNIER METAR :
  • 221620Z AUTO 25006KT 9999 NSC 11/05 Q1026 NOSIG

METARs EXPIRÉS :
  • 221550Z 25006KT CAVOK 13/05 Q1026 NOSIG
  • 221520Z 25005KT CAVOK 13/05 Q1026 NOSIG
  • 221450Z 29005KT CAVOK 14/05 Q1026 NOSIG
  • 221420Z 28003KT 230V320 CAVOK 14/05 Q1026 NOSIG
  • 221350Z 28003KT 250V330 9999 FEW040 14/05 Q1026 NOSIG

TAF TAF LOWL
Valide du 22 à 12h jusqu'au 23 à 12h UTC


221115Z 2212/2312 27004KT 9999 FEW040 TX14/2214Z TN07/2306Z
BECMG 2304/2306 28010KT BKN025
TEMPO 2309/2312 28015G25KT -SHRA
Pas de NOTAMs connus pour ce terrain.



MET'MAP, la Météo Aéronautique d'un coup d'oeil ! - Copyright ORBIFLY Décembre 2007 - Disclaimer

ORBIFLY MET'MAP TEAM :

Programmation & Développement : Alexandra Zaïnal
Conception & Développement : Baudouin d'Aumeries
Co-Programmation & Développement : Marc-Olivier Méhu
Soutien technique & logistique : Manuel Goepfert

Contact : metmap@orbifly.com




SOURCES & CREDITS :

   NOAA